DLH3NX EDDF-ENGM
Flight info
| Callsign | DLH3NX |
|---|---|
| Flight time | 1h 42m |
| Altitude | 37000 |
| Route | MARUN3W/25C MARUN Y150 TOLGI DCT ALASA DCT INVOL DCT SABAK L997 LUNIP |
| Aircraft | A320/M-SDE3FGHIRWY/LB1 |
Departure
| Time | 2026-05-07 16:38 |
|---|---|
| Airport | Frankfurt Main Airport (EDDF) |
Arrival
| Time | 2026-05-07 18:20 |
|---|---|
| Airport | Oslo-Gardermoen International Airport (ENGM) |
| Time | Latitude | Longitude | Altitude | Speed | Heading |
|---|---|---|---|---|---|
| 2026-05-07 16:13 | 50.04179 | 8.56129 | 353 ft | 0 kts | 160° |
| 2026-05-07 16:26 | 50.04178 | 8.56130 | 353 ft | 0 kts | 160° |
| 2026-05-07 16:27 | 50.04167 | 8.56136 | 362 ft | 4 kts | 160° |
| 2026-05-07 16:27 | 50.04124 | 8.56168 | 354 ft | 10 kts | 143° |
| 2026-05-07 16:27 | 50.04130 | 8.56290 | 355 ft | 13 kts | 70° |
| 2026-05-07 16:27 | 50.04159 | 8.56412 | 358 ft | 13 kts | 69° |
| 2026-05-07 16:28 | 50.04194 | 8.56561 | 358 ft | 17 kts | 70° |
| 2026-05-07 16:28 | 50.04239 | 8.56748 | 359 ft | 20 kts | 69° |
| 2026-05-07 16:28 | 50.04285 | 8.56937 | 364 ft | 19 kts | 69° |
| 2026-05-07 16:28 | 50.04328 | 8.57120 | 361 ft | 17 kts | 70° |
| 2026-05-07 16:29 | 50.04366 | 8.57280 | 362 ft | 16 kts | 69° |
| 2026-05-07 16:29 | 50.04411 | 8.57466 | 361 ft | 20 kts | 70° |
| 2026-05-07 16:29 | 50.04459 | 8.57668 | 367 ft | 20 kts | 70° |
| 2026-05-07 16:29 | 50.04513 | 8.57892 | 365 ft | 25 kts | 70° |
| 2026-05-07 16:30 | 50.04575 | 8.58152 | 367 ft | 21 kts | 69° |
| 2026-05-07 16:30 | 50.04615 | 8.58320 | 368 ft | 11 kts | 70° |
| 2026-05-07 16:30 | 50.04630 | 8.58384 | 372 ft | 2 kts | 69° |
| 2026-05-07 16:30 | 50.04633 | 8.58396 | 371 ft | 1 kts | 69° |
| 2026-05-07 16:31 | 50.04639 | 8.58421 | 370 ft | 4 kts | 70° |
| 2026-05-07 16:31 | 50.04652 | 8.58478 | 369 ft | 7 kts | 70° |
| 2026-05-07 16:31 | 50.04644 | 8.58552 | 369 ft | 7 kts | 130° |
| 2026-05-07 16:31 | 50.04608 | 8.58580 | 369 ft | 5 kts | 160° |
| 2026-05-07 16:32 | 50.04548 | 8.58614 | 371 ft | 12 kts | 160° |
| 2026-05-07 16:32 | 50.04494 | 8.58612 | 370 ft | 5 kts | 224° |
| 2026-05-07 16:32 | 50.04487 | 8.58589 | 370 ft | 0 kts | 250° |
| 2026-05-07 16:37 | 50.04487 | 8.58587 | 370 ft | 2 kts | 250° |
| 2026-05-07 16:37 | 50.04428 | 8.58340 | 369 ft | 59 kts | 249° |
| 2026-05-07 16:37 | 50.04206 | 8.57412 | 369 ft | 120 kts | 249° |
| 2026-05-07 16:37 | 50.03855 | 8.55941 | 362 ft | 167 kts | 249° |
| 2026-05-07 16:38 | 50.03454 | 8.54249 | 1000 ft | 165 kts | 249° |
| 2026-05-07 16:38 | 50.03046 | 8.52568 | 1663 ft | 170 kts | 252° |
| 2026-05-07 16:38 | 50.02602 | 8.50781 | 1997 ft | 190 kts | 245° |
| 2026-05-07 16:38 | 50.01750 | 8.49104 | 2360 ft | 209 kts | 219° |
| 2026-05-07 16:39 | 50.00439 | 8.48089 | 2963 ft | 214 kts | 194° |
| 2026-05-07 16:39 | 49.98963 | 8.47721 | 3610 ft | 215 kts | 189° |
| 2026-05-07 16:39 | 49.97478 | 8.47393 | 4259 ft | 216 kts | 189° |
| 2026-05-07 16:39 | 49.95996 | 8.47025 | 4897 ft | 216 kts | 197° |
| 2026-05-07 16:40 | 49.94503 | 8.46353 | 5238 ft | 235 kts | 199° |
| 2026-05-07 16:40 | 49.92903 | 8.45589 | 5784 ft | 247 kts | 203° |
| 2026-05-07 16:40 | 49.91494 | 8.44099 | 6544 ft | 247 kts | 232° |
| 2026-05-07 16:40 | 49.90710 | 8.41753 | 7291 ft | 247 kts | 259° |
| 2026-05-07 16:41 | 49.90739 | 8.39104 | 8065 ft | 249 kts | 287° |
| 2026-05-07 16:41 | 49.91579 | 8.36772 | 8832 ft | 252 kts | 314° |
| 2026-05-07 16:41 | 49.93052 | 8.35286 | 9594 ft | 257 kts | 335° |
| 2026-05-07 16:41 | 49.94767 | 8.34158 | 10010 ft | 276 kts | 336° |
| 2026-05-07 16:42 | 49.96589 | 8.32991 | 10421 ft | 293 kts | 336° |
| 2026-05-07 16:42 | 49.98557 | 8.31734 | 10634 ft | 316 kts | 336° |
| 2026-05-07 16:42 | 50.00626 | 8.30406 | 11137 ft | 326 kts | 336° |
| 2026-05-07 16:42 | 50.02784 | 8.29229 | 11818 ft | 332 kts | 346° |
| 2026-05-07 16:43 | 50.05096 | 8.28788 | 12520 ft | 337 kts | 359° |
| 2026-05-07 16:43 | 50.07413 | 8.29179 | 13201 ft | 343 kts | 12° |
| 2026-05-07 16:43 | 50.09704 | 8.30300 | 13886 ft | 347 kts | 17° |
| 2026-05-07 16:43 | 50.12003 | 8.31517 | 14492 ft | 350 kts | 17° |
| 2026-05-07 16:44 | 50.14331 | 8.32743 | 15083 ft | 354 kts | 17° |
| 2026-05-07 16:44 | 50.16680 | 8.33978 | 15684 ft | 358 kts | 17° |
| 2026-05-07 16:44 | 50.19051 | 8.35226 | 16288 ft | 361 kts | 17° |
| 2026-05-07 16:44 | 50.21450 | 8.36488 | 16891 ft | 364 kts | 17° |
| 2026-05-07 16:45 | 50.23834 | 8.37741 | 17480 ft | 368 kts | 17° |
| 2026-05-07 16:45 | 50.26274 | 8.39019 | 18054 ft | 371 kts | 17° |
| 2026-05-07 16:45 | 50.28744 | 8.40314 | 18600 ft | 375 kts | 17° |
| 2026-05-07 16:45 | 50.31225 | 8.41629 | 19112 ft | 378 kts | 18° |
| 2026-05-07 16:46 | 50.33718 | 8.42980 | 19633 ft | 380 kts | 18° |
| 2026-05-07 16:46 | 50.36225 | 8.44352 | 20164 ft | 382 kts | 18° |
| 2026-05-07 16:46 | 50.38745 | 8.45741 | 20670 ft | 385 kts | 18° |
| 2026-05-07 16:46 | 50.41281 | 8.47139 | 21165 ft | 388 kts | 18° |
| 2026-05-07 16:47 | 50.43835 | 8.48545 | 21643 ft | 390 kts | 18° |
| 2026-05-07 16:47 | 50.46407 | 8.49957 | 22122 ft | 393 kts | 18° |
| 2026-05-07 16:47 | 50.49003 | 8.51349 | 22597 ft | 395 kts | 17° |
| 2026-05-07 16:47 | 50.51635 | 8.52657 | 23062 ft | 398 kts | 15° |
| 2026-05-07 16:48 | 50.54295 | 8.53914 | 23513 ft | 400 kts | 15° |
| 2026-05-07 16:48 | 50.56941 | 8.55135 | 23908 ft | 403 kts | 15° |
| 2026-05-07 16:48 | 50.59641 | 8.56384 | 24275 ft | 405 kts | 15° |
| 2026-05-07 16:48 | 50.62362 | 8.57659 | 24650 ft | 408 kts | 15° |
| 2026-05-07 16:49 | 50.65079 | 8.58950 | 25026 ft | 410 kts | 15° |
| 2026-05-07 16:49 | 50.67814 | 8.60267 | 25394 ft | 412 kts | 16° |
| 2026-05-07 16:49 | 50.70568 | 8.61600 | 25759 ft | 414 kts | 16° |
| 2026-05-07 16:49 | 50.73320 | 8.62936 | 26126 ft | 416 kts | 16° |
| 2026-05-07 16:50 | 50.76092 | 8.64279 | 26482 ft | 418 kts | 16° |
| 2026-05-07 16:50 | 50.78845 | 8.65824 | 26831 ft | 420 kts | 24° |
| 2026-05-07 16:50 | 50.81376 | 8.68046 | 27168 ft | 424 kts | 33° |
| 2026-05-07 16:50 | 50.83707 | 8.71019 | 27506 ft | 427 kts | 43° |
| 2026-05-07 16:51 | 50.85667 | 8.74549 | 27848 ft | 430 kts | 52° |
| 2026-05-07 16:51 | 50.87460 | 8.78287 | 28180 ft | 432 kts | 52° |
| 2026-05-07 16:51 | 50.89278 | 8.82087 | 28517 ft | 434 kts | 52° |
| 2026-05-07 16:51 | 50.91103 | 8.85907 | 28840 ft | 435 kts | 52° |
| 2026-05-07 16:52 | 50.92936 | 8.89745 | 29184 ft | 437 kts | 52° |
| 2026-05-07 16:52 | 50.94155 | 8.92296 | 29399 ft | 439 kts | 52° |
| 2026-05-07 16:52 | 50.96000 | 8.96165 | 29714 ft | 441 kts | 52° |
| 2026-05-07 16:52 | 50.97850 | 9.00056 | 30023 ft | 442 kts | 52° |
| 2026-05-07 16:53 | 50.99712 | 9.03976 | 30296 ft | 444 kts | 52° |
| 2026-05-07 16:53 | 51.01572 | 9.07893 | 30533 ft | 446 kts | 52° |
| 2026-05-07 16:53 | 51.03443 | 9.11838 | 30773 ft | 448 kts | 52° |
| 2026-05-07 16:53 | 51.05319 | 9.15803 | 31002 ft | 450 kts | 52° |
| 2026-05-07 16:54 | 51.07207 | 9.19789 | 31286 ft | 449 kts | 50° |
| 2026-05-07 16:54 | 51.09331 | 9.23415 | 31602 ft | 447 kts | 40° |
| 2026-05-07 16:54 | 51.11791 | 9.26419 | 31915 ft | 445 kts | 31° |
| 2026-05-07 16:54 | 51.14514 | 9.28734 | 32213 ft | 443 kts | 21° |
| 2026-05-07 16:55 | 51.17384 | 9.30302 | 32517 ft | 441 kts | 12° |
| 2026-05-07 16:55 | 51.20380 | 9.31356 | 32837 ft | 440 kts | 11° |
| 2026-05-07 16:55 | 51.23376 | 9.32388 | 33142 ft | 440 kts | 11° |
| 2026-05-07 16:55 | 51.26369 | 9.33425 | 33461 ft | 440 kts | 11° |
| 2026-05-07 16:56 | 51.29356 | 9.34466 | 33786 ft | 439 kts | 12° |
| 2026-05-07 16:56 | 51.32342 | 9.35507 | 34079 ft | 439 kts | 11° |
| 2026-05-07 16:56 | 51.38304 | 9.37578 | 34547 ft | 439 kts | 11° |
| 2026-05-07 16:57 | 51.41295 | 9.38622 | 34749 ft | 440 kts | 11° |
| 2026-05-07 16:57 | 51.44292 | 9.39675 | 34942 ft | 441 kts | 11° |
| 2026-05-07 16:57 | 51.47304 | 9.40735 | 35124 ft | 442 kts | 12° |
| 2026-05-07 16:57 | 51.50308 | 9.41790 | 35310 ft | 443 kts | 11° |
| 2026-05-07 16:58 | 51.53326 | 9.42846 | 35498 ft | 444 kts | 11° |
| 2026-05-07 16:58 | 51.56350 | 9.43904 | 35678 ft | 445 kts | 12° |
| 2026-05-07 16:58 | 51.59379 | 9.44967 | 35856 ft | 446 kts | 11° |
| 2026-05-07 16:58 | 51.62412 | 9.46035 | 36038 ft | 446 kts | 11° |
| 2026-05-07 16:59 | 51.65450 | 9.47105 | 36210 ft | 447 kts | 11° |
| 2026-05-07 16:59 | 51.68460 | 9.48166 | 36390 ft | 448 kts | 11° |
| 2026-05-07 16:59 | 51.71500 | 9.49236 | 36552 ft | 448 kts | 11° |
| 2026-05-07 16:59 | 51.74550 | 9.50316 | 36727 ft | 449 kts | 11° |
| 2026-05-07 17:00 | 51.77604 | 9.51401 | 36881 ft | 449 kts | 11° |
| 2026-05-07 17:00 | 51.80660 | 9.52490 | 37054 ft | 450 kts | 11° |
| 2026-05-07 17:00 | 51.86846 | 9.53841 | 37093 ft | 448 kts | 4° |
| 2026-05-07 17:01 | 51.93071 | 9.54672 | 37097 ft | 448 kts | 4° |
| 2026-05-07 17:01 | 51.99289 | 9.55507 | 37097 ft | 448 kts | 4° |
| 2026-05-07 17:02 | 52.05465 | 9.56342 | 37105 ft | 448 kts | 4° |
| 2026-05-07 17:02 | 52.11682 | 9.57188 | 37109 ft | 448 kts | 4° |
| 2026-05-07 17:03 | 52.17899 | 9.58038 | 37109 ft | 448 kts | 4° |
| 2026-05-07 17:03 | 52.24115 | 9.58880 | 37118 ft | 448 kts | 4° |
| 2026-05-07 17:04 | 52.30327 | 9.59730 | 37112 ft | 448 kts | 4° |
| 2026-05-07 17:04 | 52.36537 | 9.60596 | 37106 ft | 448 kts | 4° |
| 2026-05-07 17:05 | 52.42745 | 9.61453 | 37117 ft | 447 kts | 4° |
| 2026-05-07 17:05 | 52.48951 | 9.62294 | 37114 ft | 447 kts | 4° |
| 2026-05-07 17:06 | 52.55155 | 9.63142 | 37112 ft | 447 kts | 4° |
| 2026-05-07 17:06 | 52.61316 | 9.64003 | 37106 ft | 447 kts | 4° |
| 2026-05-07 17:07 | 52.67511 | 9.64878 | 37103 ft | 447 kts | 4° |
| 2026-05-07 17:07 | 52.73711 | 9.65745 | 37090 ft | 447 kts | 4° |
| 2026-05-07 17:08 | 52.79909 | 9.66603 | 37091 ft | 447 kts | 4° |
| 2026-05-07 17:08 | 52.86106 | 9.67475 | 37081 ft | 447 kts | 4° |
| 2026-05-07 17:09 | 52.92305 | 9.68349 | 37083 ft | 447 kts | 4° |
| 2026-05-07 17:09 | 52.98505 | 9.69227 | 37077 ft | 447 kts | 4° |
| 2026-05-07 17:10 | 53.04704 | 9.70105 | 37076 ft | 447 kts | 4° |
| 2026-05-07 17:10 | 53.10905 | 9.70990 | 37074 ft | 447 kts | 4° |
| 2026-05-07 17:11 | 53.17097 | 9.71868 | 37076 ft | 447 kts | 4° |
| 2026-05-07 17:11 | 53.23256 | 9.72739 | 37077 ft | 447 kts | 4° |
| 2026-05-07 17:12 | 53.29455 | 9.73626 | 37078 ft | 447 kts | 4° |
| 2026-05-07 17:12 | 53.35654 | 9.74517 | 37081 ft | 447 kts | 4° |
| 2026-05-07 17:13 | 53.41844 | 9.75415 | 37082 ft | 447 kts | 4° |
| 2026-05-07 17:13 | 53.48040 | 9.76317 | 37107 ft | 447 kts | 4° |
| 2026-05-07 17:14 | 53.54234 | 9.77222 | 37106 ft | 446 kts | 4° |
| 2026-05-07 17:14 | 53.60418 | 9.78126 | 37107 ft | 446 kts | 4° |
| 2026-05-07 17:15 | 53.66614 | 9.79025 | 37101 ft | 447 kts | 4° |
| 2026-05-07 17:15 | 53.72812 | 9.79923 | 37098 ft | 447 kts | 4° |
| 2026-05-07 17:16 | 53.79011 | 9.80836 | 37098 ft | 447 kts | 3° |
| 2026-05-07 17:16 | 53.85179 | 9.81740 | 37103 ft | 447 kts | 4° |
| 2026-05-07 17:17 | 53.91409 | 9.82652 | 37104 ft | 446 kts | 4° |
| 2026-05-07 17:17 | 53.97565 | 9.83567 | 37108 ft | 446 kts | 4° |
| 2026-05-07 17:18 | 54.03756 | 9.84494 | 37106 ft | 446 kts | 4° |
| 2026-05-07 17:18 | 54.09935 | 9.85411 | 37117 ft | 445 kts | 4° |
| 2026-05-07 17:19 | 54.16106 | 9.86335 | 37123 ft | 445 kts | 4° |
| 2026-05-07 17:19 | 54.22228 | 9.87259 | 37121 ft | 444 kts | 4° |
| 2026-05-07 17:20 | 54.28384 | 9.88184 | 37138 ft | 444 kts | 4° |
| 2026-05-07 17:20 | 54.34536 | 9.89109 | 37137 ft | 443 kts | 4° |
| 2026-05-07 17:21 | 54.40695 | 9.90023 | 37142 ft | 443 kts | 5° |
| 2026-05-07 17:21 | 54.46825 | 9.90958 | 37141 ft | 442 kts | 5° |
| 2026-05-07 17:22 | 54.52923 | 9.91897 | 37137 ft | 442 kts | 4° |
| 2026-05-07 17:22 | 54.59039 | 9.92830 | 37134 ft | 442 kts | 5° |
| 2026-05-07 17:23 | 54.65162 | 9.93760 | 37136 ft | 441 kts | 5° |
| 2026-05-07 17:23 | 54.71278 | 9.94694 | 37133 ft | 441 kts | 5° |
| 2026-05-07 17:24 | 54.77356 | 9.95626 | 37132 ft | 440 kts | 4° |
| 2026-05-07 17:24 | 54.83419 | 9.97203 | 37129 ft | 440 kts | 13° |
| 2026-05-07 17:25 | 54.89387 | 9.99672 | 37138 ft | 440 kts | 13° |
| 2026-05-07 17:25 | 54.95355 | 10.02141 | 37137 ft | 440 kts | 13° |
| 2026-05-07 17:26 | 55.01314 | 10.04606 | 37137 ft | 440 kts | 13° |
| 2026-05-07 17:26 | 55.07235 | 10.07074 | 37133 ft | 440 kts | 13° |
| 2026-05-07 17:27 | 55.13190 | 10.09556 | 37130 ft | 440 kts | 13° |
| 2026-05-07 17:27 | 55.19152 | 10.12036 | 37126 ft | 440 kts | 13° |
| 2026-05-07 17:28 | 55.25104 | 10.14529 | 37122 ft | 440 kts | 13° |
| 2026-05-07 17:28 | 55.31069 | 10.17027 | 37121 ft | 440 kts | 13° |
| 2026-05-07 17:29 | 55.36988 | 10.19527 | 37123 ft | 440 kts | 13° |
| 2026-05-07 17:29 | 55.42945 | 10.22064 | 37121 ft | 440 kts | 13° |
| 2026-05-07 17:30 | 55.48913 | 10.24594 | 37118 ft | 440 kts | 13° |
| 2026-05-07 17:30 | 55.54874 | 10.27117 | 37118 ft | 440 kts | 13° |
| 2026-05-07 17:31 | 55.60836 | 10.29653 | 37119 ft | 440 kts | 13° |
| 2026-05-07 17:31 | 55.66789 | 10.32206 | 37118 ft | 440 kts | 13° |
| 2026-05-07 17:32 | 55.72748 | 10.34765 | 37121 ft | 440 kts | 13° |
| 2026-05-07 17:32 | 55.77708 | 10.36901 | 37121 ft | 440 kts | 13° |
| 2026-05-07 17:33 | 55.84625 | 10.39881 | 37119 ft | 440 kts | 13° |
| 2026-05-07 17:33 | 55.90581 | 10.42471 | 37124 ft | 440 kts | 13° |
| 2026-05-07 17:34 | 55.96536 | 10.45064 | 37126 ft | 440 kts | 13° |
| 2026-05-07 17:34 | 56.02491 | 10.47655 | 37125 ft | 440 kts | 13° |
| 2026-05-07 17:35 | 56.08454 | 10.50276 | 37122 ft | 440 kts | 13° |
| 2026-05-07 17:35 | 56.14368 | 10.52881 | 37132 ft | 440 kts | 13° |
| 2026-05-07 17:36 | 56.20333 | 10.55505 | 37131 ft | 440 kts | 13° |
| 2026-05-07 17:36 | 56.26244 | 10.58110 | 37144 ft | 439 kts | 13° |
| 2026-05-07 17:37 | 56.32225 | 10.60748 | 37145 ft | 439 kts | 13° |
| 2026-05-07 17:37 | 56.38128 | 10.63363 | 37143 ft | 439 kts | 13° |
| 2026-05-07 17:38 | 56.44070 | 10.66020 | 37145 ft | 439 kts | 12° |
| 2026-05-07 17:38 | 56.50000 | 10.68694 | 37143 ft | 439 kts | 12° |
| 2026-05-07 17:39 | 56.55894 | 10.71355 | 37139 ft | 439 kts | 12° |
| 2026-05-07 17:39 | 56.61839 | 10.74030 | 37136 ft | 439 kts | 12° |
| 2026-05-07 17:40 | 56.66769 | 10.76248 | 37141 ft | 439 kts | 12° |
| 2026-05-07 17:40 | 56.72686 | 10.78925 | 37140 ft | 439 kts | 12° |
| 2026-05-07 17:41 | 56.78616 | 10.81629 | 37141 ft | 439 kts | 12° |
| 2026-05-07 17:41 | 56.84549 | 10.84341 | 37138 ft | 439 kts | 12° |
| 2026-05-07 17:42 | 56.90467 | 10.87044 | 37139 ft | 439 kts | 12° |
| 2026-05-07 17:42 | 56.96400 | 10.89763 | 37144 ft | 439 kts | 12° |
| 2026-05-07 17:43 | 57.02294 | 10.92480 | 37137 ft | 439 kts | 12° |
| 2026-05-07 17:43 | 57.08225 | 10.95216 | 37136 ft | 439 kts | 12° |
| 2026-05-07 17:44 | 57.14163 | 10.97971 | 37139 ft | 439 kts | 12° |
| 2026-05-07 17:44 | 57.20045 | 11.00715 | 37145 ft | 439 kts | 12° |
| 2026-05-07 17:45 | 57.25983 | 11.03496 | 37140 ft | 439 kts | 12° |
| 2026-05-07 17:45 | 57.31898 | 11.06265 | 37138 ft | 439 kts | 12° |
| 2026-05-07 17:46 | 57.37833 | 11.09046 | 37135 ft | 439 kts | 12° |
| 2026-05-07 17:46 | 57.43754 | 11.11838 | 37152 ft | 439 kts | 11° |
| 2026-05-07 17:47 | 57.49685 | 11.14635 | 37142 ft | 439 kts | 11° |
| 2026-05-07 17:47 | 57.55576 | 11.17425 | 37138 ft | 440 kts | 11° |
| 2026-05-07 17:48 | 57.61502 | 11.20255 | 37139 ft | 440 kts | 11° |
| 2026-05-07 17:48 | 57.67345 | 11.23643 | 37134 ft | 443 kts | 20° |
| 2026-05-07 17:49 | 57.73016 | 11.28176 | 37144 ft | 443 kts | 20° |
| 2026-05-07 17:49 | 57.78705 | 11.32670 | 37132 ft | 442 kts | 15° |
| 2026-05-07 17:50 | 57.81678 | 11.33888 | 37129 ft | 434 kts | 360° |
| 2026-05-07 17:50 | 57.84652 | 11.33893 | 37124 ft | 431 kts | 355° |
| 2026-05-07 17:50 | 57.90670 | 11.33615 | 37119 ft | 432 kts | 355° |
| 2026-05-07 17:51 | 57.96663 | 11.33332 | 37120 ft | 433 kts | 355° |
| 2026-05-07 17:51 | 58.02711 | 11.33337 | 37137 ft | 435 kts | 358° |
| 2026-05-07 17:52 | 58.08778 | 11.33999 | 37134 ft | 436 kts | 0° |
| 2026-05-07 17:52 | 58.14840 | 11.34775 | 37134 ft | 436 kts | 360° |
| 2026-05-07 17:53 | 58.20865 | 11.35414 | 37132 ft | 436 kts | 359° |
| 2026-05-07 17:53 | 58.26925 | 11.35927 | 37133 ft | 436 kts | 359° |
| 2026-05-07 17:54 | 58.32991 | 11.36435 | 37091 ft | 437 kts | 359° |
| 2026-05-07 17:54 | 58.36029 | 11.36697 | 36824 ft | 436 kts | 359° |
| 2026-05-07 17:54 | 58.39050 | 11.36957 | 36559 ft | 435 kts | 359° |
| 2026-05-07 17:55 | 58.42069 | 11.37216 | 36300 ft | 434 kts | 359° |
| 2026-05-07 17:55 | 58.45048 | 11.37476 | 36048 ft | 432 kts | 359° |
| 2026-05-07 17:55 | 58.48033 | 11.37744 | 35794 ft | 429 kts | 359° |
| 2026-05-07 17:55 | 58.51012 | 11.38014 | 35542 ft | 426 kts | 359° |
| 2026-05-07 17:56 | 58.53960 | 11.38284 | 35313 ft | 422 kts | 358° |
| 2026-05-07 17:56 | 58.56891 | 11.38559 | 35073 ft | 419 kts | 358° |
| 2026-05-07 17:56 | 58.59790 | 11.38832 | 34822 ft | 415 kts | 358° |
| 2026-05-07 17:56 | 58.62635 | 11.39085 | 34583 ft | 412 kts | 358° |
| 2026-05-07 17:57 | 58.65487 | 11.39339 | 34339 ft | 408 kts | 358° |
| 2026-05-07 17:57 | 58.67401 | 11.39511 | 34179 ft | 406 kts | 358° |
| 2026-05-07 17:57 | 58.71125 | 11.39853 | 33822 ft | 403 kts | 358° |
| 2026-05-07 17:57 | 58.73911 | 11.40115 | 33466 ft | 398 kts | 358° |
| 2026-05-07 17:58 | 58.76675 | 11.40371 | 32974 ft | 395 kts | 358° |
| 2026-05-07 17:58 | 58.79392 | 11.40616 | 32496 ft | 403 kts | 358° |
| 2026-05-07 17:58 | 58.82276 | 11.40859 | 32004 ft | 422 kts | 357° |
| 2026-05-07 17:58 | 58.85229 | 11.41113 | 31460 ft | 426 kts | 357° |
| 2026-05-07 17:59 | 58.88193 | 11.41385 | 30939 ft | 425 kts | 357° |
| 2026-05-07 17:59 | 58.91144 | 11.41665 | 30438 ft | 423 kts | 357° |
| 2026-05-07 17:59 | 58.94078 | 11.41948 | 29897 ft | 420 kts | 357° |
| 2026-05-07 17:59 | 58.96999 | 11.42225 | 29408 ft | 418 kts | 357° |
| 2026-05-07 18:00 | 58.99893 | 11.42493 | 28916 ft | 415 kts | 357° |
| 2026-05-07 18:00 | 59.02764 | 11.42707 | 28557 ft | 411 kts | 356° |
| 2026-05-07 18:00 | 59.05579 | 11.42746 | 28287 ft | 409 kts | 354° |
| 2026-05-07 18:00 | 59.08423 | 11.42661 | 28013 ft | 406 kts | 353° |
| 2026-05-07 18:01 | 59.11244 | 11.42515 | 27769 ft | 404 kts | 353° |
| 2026-05-07 18:01 | 59.14049 | 11.42379 | 27491 ft | 402 kts | 353° |
| 2026-05-07 18:01 | 59.16850 | 11.42280 | 27229 ft | 401 kts | 353° |
| 2026-05-07 18:01 | 59.19635 | 11.42209 | 26975 ft | 399 kts | 353° |
| 2026-05-07 18:02 | 59.25143 | 11.42128 | 26445 ft | 397 kts | 354° |
| 2026-05-07 18:02 | 59.27902 | 11.42097 | 26195 ft | 396 kts | 354° |
| 2026-05-07 18:02 | 59.30651 | 11.42066 | 25941 ft | 394 kts | 354° |
| 2026-05-07 18:03 | 59.33389 | 11.42033 | 25689 ft | 393 kts | 354° |
| 2026-05-07 18:03 | 59.36117 | 11.41996 | 25446 ft | 391 kts | 354° |
| 2026-05-07 18:03 | 59.38836 | 11.41952 | 25225 ft | 390 kts | 353° |
| 2026-05-07 18:03 | 59.41541 | 11.41907 | 24983 ft | 388 kts | 353° |
| 2026-05-07 18:04 | 59.44235 | 11.41866 | 24609 ft | 386 kts | 353° |
| 2026-05-07 18:04 | 59.46911 | 11.41826 | 23632 ft | 383 kts | 353° |
| 2026-05-07 18:04 | 59.49570 | 11.41786 | 22540 ft | 380 kts | 354° |
| 2026-05-07 18:04 | 59.52174 | 11.41747 | 22008 ft | 377 kts | 354° |
| 2026-05-07 18:05 | 59.54781 | 11.41711 | 21542 ft | 373 kts | 354° |
| 2026-05-07 18:05 | 59.57372 | 11.41672 | 21072 ft | 370 kts | 354° |
| 2026-05-07 18:05 | 59.59944 | 11.41625 | 20613 ft | 368 kts | 354° |
| 2026-05-07 18:05 | 59.62496 | 11.41576 | 20163 ft | 367 kts | 354° |
| 2026-05-07 18:06 | 59.65085 | 11.41527 | 19689 ft | 365 kts | 354° |
| 2026-05-07 18:06 | 59.67616 | 11.41488 | 19241 ft | 364 kts | 355° |
| 2026-05-07 18:06 | 59.70116 | 11.41456 | 18794 ft | 362 kts | 354° |
| 2026-05-07 18:06 | 59.72630 | 11.41423 | 18340 ft | 360 kts | 354° |
| 2026-05-07 18:07 | 59.75123 | 11.41383 | 17857 ft | 358 kts | 354° |
| 2026-05-07 18:07 | 59.77604 | 11.41339 | 17428 ft | 355 kts | 355° |
| 2026-05-07 18:07 | 59.80071 | 11.41295 | 16990 ft | 351 kts | 355° |
| 2026-05-07 18:07 | 59.82513 | 11.41254 | 16530 ft | 350 kts | 355° |
| 2026-05-07 18:08 | 59.84911 | 11.41219 | 16089 ft | 340 kts | 355° |
| 2026-05-07 18:08 | 59.87259 | 11.41184 | 15759 ft | 336 kts | 355° |
| 2026-05-07 18:08 | 59.89588 | 11.41144 | 15350 ft | 333 kts | 355° |
| 2026-05-07 18:08 | 59.91902 | 11.41100 | 14965 ft | 331 kts | 355° |
| 2026-05-07 18:09 | 59.94208 | 11.41058 | 14568 ft | 329 kts | 355° |
| 2026-05-07 18:09 | 59.96500 | 11.41019 | 14107 ft | 330 kts | 355° |
| 2026-05-07 18:09 | 59.98778 | 11.40982 | 13669 ft | 330 kts | 356° |
| 2026-05-07 18:09 | 60.01063 | 11.40948 | 13242 ft | 327 kts | 356° |
| 2026-05-07 18:10 | 60.03329 | 11.40917 | 12848 ft | 324 kts | 356° |
| 2026-05-07 18:10 | 60.05575 | 11.40884 | 12446 ft | 321 kts | 356° |
| 2026-05-07 18:10 | 60.07803 | 11.40855 | 12054 ft | 319 kts | 356° |
| 2026-05-07 18:10 | 60.10013 | 11.40824 | 11660 ft | 316 kts | 356° |
| 2026-05-07 18:11 | 60.12201 | 11.40791 | 11253 ft | 314 kts | 357° |
| 2026-05-07 18:11 | 60.13647 | 11.40764 | 10987 ft | 313 kts | 357° |
| 2026-05-07 18:11 | 60.16548 | 11.40704 | 10472 ft | 310 kts | 357° |
| 2026-05-07 18:11 | 60.18646 | 11.40669 | 10305 ft | 292 kts | 357° |
| 2026-05-07 18:12 | 60.20592 | 11.40641 | 10127 ft | 275 kts | 357° |
| 2026-05-07 18:12 | 60.22500 | 11.40614 | 9993 ft | 266 kts | 357° |
| 2026-05-07 18:12 | 60.24303 | 11.40585 | 9715 ft | 259 kts | 357° |
| 2026-05-07 18:12 | 60.26099 | 11.40555 | 9159 ft | 257 kts | 357° |
| 2026-05-07 18:13 | 60.27857 | 11.40529 | 8798 ft | 248 kts | 357° |
| 2026-05-07 18:13 | 60.29569 | 11.40503 | 8305 ft | 244 kts | 358° |
| 2026-05-07 18:13 | 60.31266 | 11.40473 | 7790 ft | 243 kts | 358° |
| 2026-05-07 18:13 | 60.32958 | 11.40442 | 7256 ft | 242 kts | 358° |
| 2026-05-07 18:14 | 60.34637 | 11.40411 | 6806 ft | 242 kts | 359° |
| 2026-05-07 18:14 | 60.36321 | 11.40378 | 6655 ft | 242 kts | 359° |
| 2026-05-07 18:14 | 60.38009 | 11.40329 | 6560 ft | 242 kts | 355° |
| 2026-05-07 18:14 | 60.39578 | 11.39362 | 6462 ft | 240 kts | 327° |
| 2026-05-07 18:15 | 60.40749 | 11.36965 | 6336 ft | 238 kts | 298° |
| 2026-05-07 18:15 | 60.41230 | 11.33782 | 5808 ft | 245 kts | 269° |
| 2026-05-07 18:15 | 60.40932 | 11.30435 | 5550 ft | 240 kts | 254° |
| 2026-05-07 18:15 | 60.40433 | 11.27215 | 5095 ft | 242 kts | 243° |
| 2026-05-07 18:16 | 60.39453 | 11.24531 | 4731 ft | 233 kts | 221° |
| 2026-05-07 18:16 | 60.38124 | 11.22792 | 4437 ft | 223 kts | 201° |
| 2026-05-07 18:16 | 60.36671 | 11.21875 | 4143 ft | 215 kts | 196° |
| 2026-05-07 18:16 | 60.35255 | 11.21050 | 3855 ft | 208 kts | 195° |
| 2026-05-07 18:17 | 60.33899 | 11.20258 | 3581 ft | 203 kts | 196° |
| 2026-05-07 18:17 | 60.32562 | 11.19478 | 3338 ft | 197 kts | 195° |
| 2026-05-07 18:17 | 60.31256 | 11.18717 | 3037 ft | 193 kts | 195° |
| 2026-05-07 18:17 | 60.29985 | 11.17977 | 2779 ft | 185 kts | 196° |
| 2026-05-07 18:18 | 60.28811 | 11.17293 | 2552 ft | 166 kts | 196° |
| 2026-05-07 18:18 | 60.27748 | 11.16677 | 2294 ft | 152 kts | 195° |
| 2026-05-07 18:18 | 60.26771 | 11.16105 | 2113 ft | 141 kts | 195° |
| 2026-05-07 18:18 | 60.25842 | 11.15567 | 1975 ft | 137 kts | 195° |
| 2026-05-07 18:19 | 60.24917 | 11.15018 | 1763 ft | 140 kts | 195° |
| 2026-05-07 18:19 | 60.23973 | 11.14478 | 1532 ft | 142 kts | 195° |
| 2026-05-07 18:19 | 60.23021 | 11.13933 | 1309 ft | 143 kts | 195° |
| 2026-05-07 18:19 | 60.22068 | 11.13380 | 1121 ft | 142 kts | 195° |
| 2026-05-07 18:20 | 60.21111 | 11.12822 | 924 ft | 143 kts | 196° |
| 2026-05-07 18:20 | 60.20148 | 11.12267 | 742 ft | 143 kts | 196° |
| 2026-05-07 18:20 | 60.19251 | 11.11744 | 682 ft | 123 kts | 196° |
| 2026-05-07 18:20 | 60.18692 | 11.11422 | 684 ft | 37 kts | 196° |
| 2026-05-07 18:21 | 60.18487 | 11.11249 | 682 ft | 31 kts | 211° |
| 2026-05-07 18:21 | 60.18435 | 11.11085 | 682 ft | 9 kts | 273° |
| 2026-05-07 18:21 | 60.18450 | 11.10956 | 681 ft | 9 kts | 286° |
| 2026-05-07 18:21 | 60.18466 | 11.10846 | 681 ft | 8 kts | 286° |
| 2026-05-07 18:22 | 60.18489 | 11.10759 | 681 ft | 5 kts | 329° |
| 2026-05-07 18:22 | 60.18514 | 11.10757 | 682 ft | 7 kts | 10° |
| 2026-05-07 18:22 | 60.18634 | 11.10828 | 682 ft | 20 kts | 16° |
| 2026-05-07 18:22 | 60.18784 | 11.10913 | 683 ft | 23 kts | 16° |
| 2026-05-07 18:23 | 60.18945 | 11.11006 | 683 ft | 25 kts | 17° |
| 2026-05-07 18:23 | 60.19114 | 11.11104 | 684 ft | 26 kts | 16° |
| 2026-05-07 18:23 | 60.19287 | 11.11204 | 685 ft | 25 kts | 16° |
| 2026-05-07 18:23 | 60.19384 | 11.11261 | 684 ft | 11 kts | 15° |
| 2026-05-07 18:24 | 60.19470 | 11.11289 | 682 ft | 14 kts | 341° |
| 2026-05-07 18:24 | 60.19512 | 11.11102 | 679 ft | 17 kts | 285° |
| 2026-05-07 18:24 | 60.19545 | 11.10875 | 683 ft | 17 kts | 287° |
| 2026-05-07 18:24 | 60.19579 | 11.10638 | 683 ft | 16 kts | 288° |
| 2026-05-07 18:25 | 60.19620 | 11.10442 | 683 ft | 13 kts | 328° |
| 2026-05-07 18:25 | 60.19692 | 11.10421 | 685 ft | 9 kts | 295° |
| 2026-05-07 18:25 | 60.19709 | 11.10310 | 680 ft | 6 kts | 286° |
| 2026-05-07 18:25 | 60.19718 | 11.10251 | 685 ft | 2 kts | 286° |
| 2026-05-07 18:26 | 60.19719 | 11.10242 | 685 ft | 0 kts | 286° |